Time;durP1;ratioP1;P1;durP2;ratioP2;P2;SDS_P1;SDS_P2;PMS_P1;PMS_P2;Temp;Humidity;BMP_temperature;BMP_pressure;BME280_temperature;BME280_humidity;BME280_pressure;Samples;Min_cycle;Max_cycle;Signal;HPM_P1;HPM_P2
2022/06/29 00:01:55;;;;;;;;;;;;;;;;;;4976926;28;20416;-87
2022/06/29 00:04:20;;;;;;;;;;;;;;;;;;4977536;28;19964;-88
2022/06/29 00:06:46;;;;;;;;;;;;;;;;;;4992646;28;19922;-87
2022/06/29 00:09:11;;;;;;;;;;;;;;;;;;4992407;28;20300;-88
2022/06/29 00:11:36;;;;;;;;;;;;;;;;;;4995041;28;19914;-88
2022/06/29 00:14:02;;;;;;;;;;;;;;;;;;5009959;28;20305;-86
2022/06/29 00:16:30;;;;;;;;;;;;;;;;;;4994668;28;19975;-88
2022/06/29 00:18:55;;;;;;;;;;;;;;;;;;4978101;28;19917;-86
2022/06/29 00:21:21;;;;;;;;;;;;;;;;;;4993678;28;19929;-87
2022/06/29 00:23:46;;;;;;;;;;;;;;;;;;4977895;28;20281;-87
2022/06/29 00:26:11;;;;;;;;;;;;;;;;;;4992908;28;19913;-88
2022/06/29 00:28:37;;;;;;;;;;;;;;;;;;4992867;28;19914;-87
2022/06/29 00:31:02;;;;;;;;;;;;;;;;;;4977226;28;19997;-87
2022/06/29 00:33:28;;;;;;;;;;;;;;;;;;4961252;28;19920;-87
2022/06/29 00:35:53;;;;;;;;;;;;;;;;;;4992727;28;19961;-89
2022/06/29 00:38:19;;;;;;;;;;;;;;;;;;4976883;28;20312;-86
2022/06/29 00:40:44;;;;;;;;;;;;;;;;;;4976695;28;19914;-88
2022/06/29 00:43:09;;;;;;;;;;;;;;;;;;4977001;28;20366;-89
2022/06/29 00:45:35;;;;;;;;;;;;;;;;;;4993055;28;20322;-88
2022/06/29 00:48:01;;;;;;;;;;;;;;;;;;4992265;28;19917;-88
2022/06/29 00:50:26;;;;;;;;;;;;;;;;;;4976929;28;20005;-84
2022/06/29 00:52:51;;;;;;;;;;;;;;;;;;4975924;28;20297;-86
2022/06/29 00:55:17;;;;;;;;;;;;;;;;;;4991552;28;19918;-87
2022/06/29 00:57:45;;;;;;;;;;;;;;;;;;4994121;28;19967;-86
2022/06/29 01:00:10;;;;;;;;;;;;;;;;;;4979954;28;19937;-86
2022/06/29 01:02:36;;;;;;;;;;;;;;;;;;4995849;28;20393;-87
2022/06/29 01:05:01;;;;;;;;;;;;;;;;;;4996032;28;20007;-88
2022/06/29 01:07:30;;;;;;;;;;;;;;;;;;4996094;28;19913;-88
2022/06/29 01:09:56;;;;;;;;;;;;;;;;;;4996164;28;19941;-88
2022/06/29 01:12:21;;;;;;;;;;;;;;;;;;4979787;28;20409;-87
2022/06/29 01:14:46;;;;;;;;;;;;;;;;;;4979838;28;20042;-87
2022/06/29 01:17:12;;;;;;;;;;;;;;;;;;4995963;28;19914;-86
2022/06/29 01:19:37;;;;;;;;;;;;;;;;;;4979954;28;19949;-87
2022/06/29 01:22:03;;;;;;;;;;;;;;;;;;4995374;28;19956;-86
2022/06/29 01:24:28;;;;;;;;;;;;;;;;;;5012132;28;20285;-88
2022/06/29 01:26:53;;;;;;;;;;;;;;;;;;4979776;28;20330;-87
2022/06/29 01:29:19;;;;;;;;;;;;;;;;;;4996994;28;19917;-86
2022/06/29 01:31:44;;;;;;;;;;;;;;;;;;4996510;28;19914;-87
2022/06/29 01:34:10;;;;;;;;;;;;;;;;;;4996486;28;19922;-88
2022/06/29 01:36:35;;;;;;;;;;;;;;;;;;4995553;28;20313;-87
2022/06/29 01:39:00;;;;;;;;;;;;;;;;;;4995361;28;19914;-87
2022/06/29 01:41:26;;;;;;;;;;;;;;;;;;5011617;28;20026;-87
2022/06/29 01:43:52;;;;;;;;;;;;;;;;;;4995206;28;19914;-86
2022/06/29 01:46:17;;;;;;;;;;;;;;;;;;4979396;28;19914;-87
2022/06/29 01:48:43;;;;;;;;;;;;;;;;;;4995064;28;19956;-87
2022/06/29 01:51:08;;;;;;;;;;;;;;;;;;4996348;28;19937;-86
2022/06/29 01:53:33;;;;;;;;;;;;;;;;;;4995126;28;19917;-86
2022/06/29 01:55:59;;;;;;;;;;;;;;;;;;5010988;28;20109;-87
2022/06/29 01:58:24;;;;;;;;;;;;;;;;;;4994877;28;19914;-86
2022/06/29 02:00:49;;;;;;;;;;;;;;;;;;4996242;28;19968;-88
2022/06/29 02:03:15;;;;;;;;;;;;;;;;;;4978928;28;19949;-87
2022/06/29 02:05:40;;;;;;;;;;;;;;;;;;4996393;28;19914;-88
2022/06/29 02:08:06;;;;;;;;;;;;;;;;;;4994986;28;19914;-87
2022/06/29 02:10:31;;;;;;;;;;;;;;;;;;4994295;28;19921;-88
2022/06/29 02:12:57;;;;;;;;;;;;;;;;;;5011066;28;20262;-89
2022/06/29 02:15:23;;;;;;;;;;;;;;;;;;4994995;28;19969;-87
2022/06/29 02:17:49;;;;;;;;;;;;;;;;;;4978827;28;20333;-86
2022/06/29 02:20:14;;;;;;;;;;;;;;;;;;5011080;28;19972;-87
2022/06/29 02:22:40;;;;;;;;;;;;;;;;;;4994886;28;19917;-88
2022/06/29 02:25:05;;;;;;;;;;;;;;;;;;4995095;28;19956;-87
2022/06/29 02:27:30;;;;;;;;;;;;;;;;;;4994518;28;19981;-87
2022/06/29 02:29:56;;;;;;;;;;;;;;;;;;4995664;28;19913;-87
2022/06/29 02:35:06;;;;;;;;;;;;;;;;;;4994716;28;19917;-86
2022/06/29 02:37:31;;;;;;;;;;;;;;;;;;5010805;28;20296;-87
2022/06/29 02:39:56;;;;;;;;;;;;;;;;;;4996020;28;19937;-87
2022/06/29 02:42:22;;;;;;;;;;;;;;;;;;4994223;28;19920;-87
2022/06/29 02:44:48;;;;;;;;;;;;;;;;;;4994321;28;20005;-88
2022/06/29 02:47:13;;;;;;;;;;;;;;;;;;4993974;28;19925;-88
2022/06/29 02:49:39;;;;;;;;;;;;;;;;;;5002891;23;20309;-90
2022/06/29 02:52:10;;;;;;;;;;;;;;;;;;4963123;28;19910;-90
2022/06/29 02:54:38;;;;;;;;;;;;;;;;;;4996300;28;20016;-91
2022/06/29 02:57:04;;;;;;;;;;;;;;;;;;4998721;28;20412;-91
2022/06/29 02:59:30;;;;;;;;;;;;;;;;;;4998070;28;19914;-91
2022/06/29 03:02:06;;;;;;;;;;;;;;;;;;4996994;28;20090;-90
2022/06/29 03:04:34;;;;;;;;;;;;;;;;;;4979692;28;19949;-91
2022/06/29 03:06:59;;;;;;;;;;;;;;;;;;4996660;28;19920;-92
2022/06/29 03:09:25;;;;;;;;;;;;;;;;;;4979399;28;19918;-90
2022/06/29 03:11:50;;;;;;;;;;;;;;;;;;4996480;28;19914;-91
2022/06/29 03:14:16;;;;;;;;;;;;;;;;;;4996565;28;20464;-90
2022/06/29 03:16:41;;;;;;;;;;;;;;;;;;4979427;28;19914;-91
2022/06/29 03:19:07;;;;;;;;;;;;;;;;;;4979622;28;19997;-89
2022/06/29 03:21:32;;;;;;;;;;;;;;;;;;4978183;28;20004;-87
2022/06/29 03:23:58;;;;;;;;;;;;;;;;;;4979025;28;20342;-90
2022/06/29 03:26:26;;;;;;;;;;;;;;;;;;4996560;28;19910;-89
2022/06/29 03:28:54;;;;;;;;;;;;;;;;;;4995868;28;19965;-88
2022/06/29 03:31:20;;;;;;;;;;;;;;;;;;4996333;28;20377;-87
2022/06/29 03:33:47;;;;;;;;;;;;;;;;;;4978495;28;19913;-90
2022/06/29 03:36:15;;;;;;;;;;;;;;;;;;4978270;28;19910;-87
2022/06/29 03:38:44;;;;;;;;;;;;;;;;;;4961450;28;19921;-89
2022/06/29 03:41:09;;;;;;;;;;;;;;;;;;4960773;28;19948;-89
2022/06/29 03:43:35;;;;;;;;;;;;;;;;;;4961195;28;20293;-91
2022/06/29 03:46:00;;;;;;;;;;;;;;;;;;4978198;28;19914;-89
2022/06/29 03:48:26;;;;;;;;;;;;;;;;;;4946185;28;20365;-90
2022/06/29 03:50:51;;;;;;;;;;;;;;;;;;4961447;28;19926;-88
2022/06/29 03:53:19;;;;;;;;;;;;;;;;;;4960665;28;19914;-88
2022/06/29 03:55:47;;;;;;;;;;;;;;;;;;4961674;28;19917;-89
2022/06/29 03:58:15;;;;;;;;;;;;;;;;;;4976586;28;19913;-88
2022/06/29 04:00:50;;;;;;;;;;;;;;;;;;4976887;28;19913;-88
2022/06/29 04:03:15;;;;;;;;;;;;;;;;;;4976907;28;20413;-87
2022/06/29 04:05:43;;;;;;;;;;;;;;;;;;4961074;28;19910;-88
2022/06/29 04:08:10;;;;;;;;;;;;;;;;;;4976969;28;19973;-87
2022/06/29 04:10:36;;;;;;;;;;;;;;;;;;4961287;28;19914;-86
2022/06/29 04:13:01;;;;;;;;;;;;;;;;;;4960730;28;20330;-86
2022/06/29 04:15:26;;;;;;;;;;;;;;;;;;4961362;28;19988;-88
2022/06/29 04:17:51;;;;;;;;;;;;;;;;;;4977276;28;19917;-88
2022/06/29 04:23:01;;;;;;;;;;;;;;;;;;4978330;28;19914;-89
2022/06/29 04:25:27;;;;;;;;;;;;;;;;;;4994857;28;20302;-90
2022/06/29 04:27:52;;;;;;;;;;;;;;;;;;4977551;28;19914;-88
2022/06/29 04:30:18;;;;;;;;;;;;;;;;;;4960332;28;19913;-88
2022/06/29 04:32:43;;;;;;;;;;;;;;;;;;4975083;28;19949;-87
2022/06/29 04:35:09;;;;;;;;;;;;;;;;;;4993361;28;20314;-88
2022/06/29 04:37:34;;;;;;;;;;;;;;;;;;4975882;28;19960;-87
2022/06/29 04:40:03;;;;;;;;;;;;;;;;;;4993204;28;19920;-87
2022/06/29 04:42:28;;;;;;;;;;;;;;;;;;4976311;28;19921;-87
2022/06/29 04:44:53;;;;;;;;;;;;;;;;;;4977051;28;19963;-89
2022/06/29 04:47:19;;;;;;;;;;;;;;;;;;4961701;28;19913;-90
2022/06/29 04:49:44;;;;;;;;;;;;;;;;;;4944203;28;20336;-88
2022/06/29 04:52:09;;;;;;;;;;;;;;;;;;4993068;28;19910;-88
2022/06/29 04:54:38;;;;;;;;;;;;;;;;;;4976513;28;20096;-86
2022/06/29 04:57:03;;;;;;;;;;;;;;;;;;4959733;28;19914;-87
2022/06/29 04:59:29;;;;;;;;;;;;;;;;;;4944006;28;19940;-88
2022/06/29 05:01:54;;;;;;;;;;;;;;;;;;4960312;28;19914;-89
2022/06/29 05:04:20;;;;;;;;;;;;;;;;;;4960859;28;20349;-89
2022/06/29 05:06:45;;;;;;;;;;;;;;;;;;4995343;28;19961;-88
2022/06/29 05:09:11;;;;;;;;;;;;;;;;;;4979339;28;19917;-88
2022/06/29 05:11:36;;;;;;;;;;;;;;;;;;4970505;28;19910;-88
2022/06/29 05:14:01;;;;;;;;;;;;;;;;;;4979506;28;19918;-87
2022/06/29 05:16:27;;;;;;;;;;;;;;;;;;4980264;28;20444;-87
2022/06/29 05:18:52;;;;;;;;;;;;;;;;;;5001643;28;19917;-87
2022/06/29 05:21:20;;;;;;;;;;;;;;;;;;4963188;28;19914;-88
2022/06/29 05:23:46;;;;;;;;;;;;;;;;;;4969380;28;19914;-89
2022/06/29 05:26:11;;;;;;;;;;;;;;;;;;5009318;28;19952;-86
2022/06/29 05:28:37;;;;;;;;;;;;;;;;;;4992446;28;20550;-88
2022/06/29 05:31:02;;;;;;;;;;;;;;;;;;5003171;28;19944;-89
2022/06/29 05:33:36;;;;;;;;;;;;;;;;;;4964342;28;19921;-89
2022/06/29 05:36:02;;;;;;;;;;;;;;;;;;4947874;28;19918;-87
2022/06/29 05:38:28;;;;;;;;;;;;;;;;;;4947274;28;19968;-88
2022/06/29 05:40:53;;;;;;;;;;;;;;;;;;4976406;28;19918;-89
2022/06/29 05:43:24;;;;;;;;;;;;;;;;;;4947004;28;19937;-88
2022/06/29 05:45:50;;;;;;;;;;;;;;;;;;4980407;28;20440;-87
2022/06/29 05:48:17;;;;;;;;;;;;;;;;;;4963492;28;20390;-88
2022/06/29 05:50:43;;;;;;;;;;;;;;;;;;4948961;28;19925;-90
2022/06/29 05:53:08;;;;;;;;;;;;;;;;;;4968843;28;19914;-88
2022/06/29 05:55:33;;;;;;;;;;;;;;;;;;4968061;28;19932;-89
2022/06/29 05:57:59;;;;;;;;;;;;;;;;;;4987319;28;19957;-90
2022/06/29 06:00:25;;;;;;;;;;;;;;;;;;4950720;28;19910;-89
2022/06/29 06:02:51;;;;;;;;;;;;;;;;;;4949961;28;19913;-89
2022/06/29 06:05:16;;;;;;;;;;;;;;;;;;4981996;28;19937;-90
2022/06/29 06:07:41;;;;;;;;;;;;;;;;;;4980321;28;19920;-90
2022/06/29 06:10:07;;;;;;;;;;;;;;;;;;4999186;28;19914;-87
2022/06/29 06:12:33;;;;;;;;;;;;;;;;;;4999221;28;19922;-87
2022/06/29 06:15:07;;;;;;;;;;;;;;;;;;4979872;28;20429;-90
2022/06/29 06:17:32;;;;;;;;;;;;;;;;;;4997720;28;19921;-89
2022/06/29 06:19:58;;;;;;;;;;;;;;;;;;4985697;28;20365;-88
2022/06/29 06:22:24;;;;;;;;;;;;;;;;;;4952214;28;19914;-89
2022/06/29 06:24:49;;;;;;;;;;;;;;;;;;4964245;28;19910;-90
2022/06/29 06:27:14;;;;;;;;;;;;;;;;;;4963585;28;20320;-88
2022/06/29 06:29:40;;;;;;;;;;;;;;;;;;4979860;28;19914;-88
2022/06/29 06:32:05;;;;;;;;;;;;;;;;;;4947393;28;19910;-88
2022/06/29 06:34:31;;;;;;;;;;;;;;;;;;4997008;28;19957;-89
2022/06/29 06:36:56;;;;;;;;;;;;;;;;;;4963377;28;19968;-90
2022/06/29 06:39:22;;;;;;;;;;;;;;;;;;4949525;28;19918;-88
2022/06/29 06:41:47;;;;;;;;;;;;;;;;;;4950396;28;19967;-90
2022/06/29 06:44:12;;;;;;;;;;;;;;;;;;4950943;28;19977;-92
2022/06/29 06:46:38;;;;;;;;;;;;;;;;;;4947636;28;20392;-90
2022/06/29 06:49:03;;;;;;;;;;;;;;;;;;4980277;28;19913;-91
2022/06/29 06:51:29;;;;;;;;;;;;;;;;;;4965932;28;19929;-90
2022/06/29 06:53:54;;;;;;;;;;;;;;;;;;4948870;28;19937;-89
2022/06/29 06:56:20;;;;;;;;;;;;;;;;;;4979200;28;19985;-89
2022/06/29 06:58:45;;;;;;;;;;;;;;;;;;4997410;28;19921;-90
2022/06/29 07:01:11;;;;;;;;;;;;;;;;;;4997025;28;19920;-90
2022/06/29 07:03:36;;;;;;;;;;;;;;;;;;4998281;28;19941;-89
2022/06/29 07:06:04;;;;;;;;;;;;;;;;;;4965068;28;19914;-89
2022/06/29 07:08:31;;;;;;;;;;;;;;;;;;4963272;28;19930;-90
2022/06/29 07:10:57;;;;;;;;;;;;;;;;;;4979798;28;19937;-87
2022/06/29 07:13:22;;;;;;;;;;;;;;;;;;4970041;28;20365;-89
2022/06/29 07:15:48;;;;;;;;;;;;;;;;;;4989741;28;19918;-90
2022/06/29 07:18:13;;;;;;;;;;;;;;;;;;4973263;28;19937;-88
2022/06/29 07:20:38;;;;;;;;;;;;;;;;;;4978166;28;19925;-88
2022/06/29 07:23:04;;;;;;;;;;;;;;;;;;4945972;28;19914;-87
2022/06/29 07:25:29;;;;;;;;;;;;;;;;;;4994580;28;19921;-88
2022/06/29 07:27:55;;;;;;;;;;;;;;;;;;4945237;28;19940;-88
2022/06/29 07:30:20;;;;;;;;;;;;;;;;;;4977248;28;20264;-87
2022/06/29 07:32:45;;;;;;;;;;;;;;;;;;4962088;28;19913;-88
2022/06/29 07:35:11;;;;;;;;;;;;;;;;;;4945870;28;19959;-89
2022/06/29 07:37:36;;;;;;;;;;;;;;;;;;4947154;28;19990;-88
2022/06/29 07:40:02;;;;;;;;;;;;;;;;;;4945974;28;19989;-87
2022/06/29 07:42:27;;;;;;;;;;;;;;;;;;4946761;28;19914;-89
2022/06/29 07:44:53;;;;;;;;;;;;;;;;;;4962684;28;20344;-89
2022/06/29 07:47:18;;;;;;;;;;;;;;;;;;4947335;28;19936;-92
2022/06/29 07:49:43;;;;;;;;;;;;;;;;;;4966967;28;19953;-92
2022/06/29 07:52:09;;;;;;;;;;;;;;;;;;4946726;28;20271;-92
2022/06/29 07:54:34;;;;;;;;;;;;;;;;;;4965306;28;19917;-93
2022/06/29 07:57:00;;;;;;;;;;;;;;;;;;4964822;28;20393;-92
2022/06/29 07:59:25;;;;;;;;;;;;;;;;;;4963139;28;20384;-90
2022/06/29 08:01:51;;;;;;;;;;;;;;;;;;4999897;28;19921;-91
2022/06/29 08:04:16;;;;;;;;;;;;;;;;;;4966224;28;20012;-91
2022/06/29 08:06:41;;;;;;;;;;;;;;;;;;4948479;28;20383;-91
2022/06/29 08:09:07;;;;;;;;;;;;;;;;;;4967051;28;19914;-93
2022/06/29 08:11:33;;;;;;;;;;;;;;;;;;4953855;28;20356;-91
2022/06/29 08:13:58;;;;;;;;;;;;;;;;;;4947212;28;20377;-93
2022/06/29 08:16:23;;;;;;;;;;;;;;;;;;4949527;28;19921;-91
2022/06/29 08:18:49;;;;;;;;;;;;;;;;;;4949721;28;19914;-90
2022/06/29 08:21:14;;;;;;;;;;;;;;;;;;4949477;28;19918;-88
2022/06/29 08:23:39;;;;;;;;;;;;;;;;;;4967381;28;19914;-92
2022/06/29 08:26:05;;;;;;;;;;;;;;;;;;4951826;28;19914;-91
2022/06/29 08:28:30;;;;;;;;;;;;;;;;;;4965726;28;20349;-91
2022/06/29 08:30:56;;;;;;;;;;;;;;;;;;4966377;28;19918;-91
2022/06/29 08:33:22;;;;;;;;;;;;;;;;;;4954176;28;19921;-91
2022/06/29 08:35:48;;;;;;;;;;;;;;;;;;5006598;28;19933;-91
2022/06/29 08:38:13;;;;;;;;;;;;;;;;;;4979368;28;19918;-91
2022/06/29 08:40:39;;;;;;;;;;;;;;;;;;4963290;28;19913;-90
2022/06/29 08:43:04;;;;;;;;;;;;;;;;;;4965993;28;19978;-93
2022/06/29 08:45:29;;;;;;;;;;;;;;;;;;4966879;28;19906;-92
2022/06/29 08:47:55;;;;;;;;;;;;;;;;;;4999956;28;19909;-92
2022/06/29 08:50:20;;;;;;;;;;;;;;;;;;4983616;28;19909;-93
2022/06/29 08:52:46;;;;;;;;;;;;;;;;;;4975089;28;20408;-90
2022/06/29 08:55:12;;;;;;;;;;;;;;;;;;4983193;28;19941;-92
2022/06/29 08:57:41;;;;;;;;;;;;;;;;;;4951685;28;19921;-93
2022/06/29 09:00:10;;;;;;;;;;;;;;;;;;4985275;28;19925;-92
2022/06/29 09:02:35;;;;;;;;;;;;;;;;;;4984537;28;19918;-92
2022/06/29 09:05:00;;;;;;;;;;;;;;;;;;4968678;28;19921;-93
2022/06/29 09:07:26;;;;;;;;;;;;;;;;;;4997112;28;20385;-90
2022/06/29 09:09:51;;;;;;;;;;;;;;;;;;4996650;28;20365;-91
2022/06/29 09:12:17;;;;;;;;;;;;;;;;;;4995426;28;19913;-89
2022/06/29 09:14:42;;;;;;;;;;;;;;;;;;4979586;28;20392;-92
2022/06/29 09:17:07;;;;;;;;;;;;;;;;;;4996978;28;20381;-91
2022/06/29 09:19:33;;;;;;;;;;;;;;;;;;4970022;28;19914;-94
2022/06/29 09:21:58;;;;;;;;;;;;;;;;;;4984305;28;20009;-91
2022/06/29 09:24:24;;;;;;;;;;;;;;;;;;5002391;28;19914;-91
2022/06/29 09:26:49;;;;;;;;;;;;;;;;;;5003482;28;19921;-93
2022/06/29 09:29:15;;;;;;;;;;;;;;;;;;4968327;28;19949;-90
2022/06/29 09:31:40;;;;;;;;;;;;;;;;;;5003454;28;19925;-89
2022/06/29 09:34:05;;;;;;;;;;;;;;;;;;5010817;28;19941;-89
2022/06/29 09:36:31;;;;;;;;;;;;;;;;;;5006878;28;19914;-91
2022/06/29 09:38:56;;;;;;;;;;;;;;;;;;5012673;28;19965;-91
2022/06/29 09:41:22;;;;;;;;;;;;;;;;;;4999638;28;19937;-93
2022/06/29 09:43:47;;;;;;;;;;;;;;;;;;4992520;28;19918;-87
2022/06/29 09:46:12;;;;;;;;;;;;;;;;;;5014648;28;19924;-91
2022/06/29 09:48:38;;;;;;;;;;;;;;;;;;4997751;28;20312;-90
2022/06/29 09:53:48;;;;;;;;;;;;;;;;;;5018495;28;20017;-92
2022/06/29 09:56:13;;;;;;;;;;;;;;;;;;5001891;28;19949;-94
2022/06/29 09:58:38;;;;;;;;;;;;;;;;;;4984732;28;19918;-92
2022/06/29 10:03:48;;;;;;;;;;;;;;;;;;5019087;28;19901;-91
2022/06/29 10:06:16;;;;;;;;;;;;;;;;;;5001342;28;20023;-91
2022/06/29 10:08:41;;;;;;;;;;;;;;;;;;5019407;28;19902;-91
2022/06/29 10:13:39;;;;;;;;;;;;;;;;;;4986252;28;19916;-92
2022/06/29 10:13:52;;;;;;;;;;;;;;;;;;5001980;28;19918;-91
2022/06/29 10:16:17;;;;;;;;;;;;;;;;;;5020112;28;19914;-92
2022/06/29 10:18:43;;;;;;;;;;;;;;;;;;4996231;28;19925;-92
2022/06/29 10:21:08;;;;;;;;;;;;;;;;;;5014270;28;20024;-91
2022/06/29 10:23:33;;;;;;;;;;;;;;;;;;4995300;28;19914;-90
2022/06/29 10:26:01;;;;;;;;;;;;;;;;;;4979016;28;19961;-93
2022/06/29 10:28:27;;;;;;;;;;;;;;;;;;5010976;28;19918;-91
2022/06/29 10:30:54;;;;;;;;;;;;;;;;;;4956237;28;19971;-90
2022/06/29 10:33:19;;;;;;;;;;;;;;;;;;4973896;28;19921;-90
2022/06/29 10:35:44;;;;;;;;;;;;;;;;;;4989230;28;19918;-90
2022/06/29 10:38:10;;;;;;;;;;;;;;;;;;5009340;28;19922;-89
2022/06/29 10:40:35;;;;;;;;;;;;;;;;;;4977720;28;20243;-91
2022/06/29 10:43:10;;;;;;;;;;;;;;;;;;4960638;28;19914;-90
2022/06/29 10:45:36;;;;;;;;;;;;;;;;;;4991350;28;19914;-89
2022/06/29 10:48:05;;;;;;;;;;;;;;;;;;5009085;28;19914;-90
2022/06/29 10:50:31;;;;;;;;;;;;;;;;;;4985256;28;19918;-91
2022/06/29 10:52:57;;;;;;;;;;;;;;;;;;5002833;28;20257;-90
2022/06/29 10:55:22;;;;;;;;;;;;;;;;;;4999951;28;19933;-92
2022/06/29 10:57:48;;;;;;;;;;;;;;;;;;4967084;28;19906;-91
2022/06/29 11:00:13;;;;;;;;;;;;;;;;;;5001758;28;19966;-92
2022/06/29 11:02:39;;;;;;;;;;;;;;;;;;4986252;28;19906;-91
2022/06/29 11:05:04;;;;;;;;;;;;;;;;;;5002610;28;19948;-92
2022/06/29 11:12:58;;;;;;;;;;;;;;;;;;4984010;28;19932;-91
2022/06/29 11:15:42;;;;;;;;;;;;;;;;;;4982097;28;19981;-91
2022/06/29 11:18:14;;;;;;;;;;;;;;;;;;4990968;28;20432;-92
2022/06/29 11:20:53;;;;;;;;;;;;;;;;;;4995198;28;19917;-90
2022/06/29 11:23:24;;;;;;;;;;;;;;;;;;5015757;28;19925;-90
2022/06/29 11:25:53;;;;;;;;;;;;;;;;;;4983019;28;19945;-92
2022/06/29 11:28:19;;;;;;;;;;;;;;;;;;4985033;28;19970;-90
2022/06/29 11:30:47;;;;;;;;;;;;;;;;;;4964008;28;19973;-91
2022/06/29 11:33:13;;;;;;;;;;;;;;;;;;4967835;28;19922;-91
2022/06/29 11:35:38;;;;;;;;;;;;;;;;;;4968263;28;19916;-92
2022/06/29 11:38:05;;;;;;;;;;;;;;;;;;5000479;28;19933;-92
2022/06/29 11:40:34;;;;;;;;;;;;;;;;;;4981740;28;19957;-90
2022/06/29 11:43:07;;;;;;;;;;;;;;;;;;4967520;28;19914;-93
2022/06/29 11:45:32;;;;;;;;;;;;;;;;;;5001035;28;19921;-92
2022/06/29 11:47:58;;;;;;;;;;;;;;;;;;4968377;28;19997;-92
2022/06/29 11:50:23;;;;;;;;;;;;;;;;;;4968728;28;19968;-93
2022/06/29 11:52:48;;;;;;;;;;;;;;;;;;4983204;28;19905;-92
2022/06/29 11:55:17;;;;;;;;;;;;;;;;;;5016806;28;19965;-91
2022/06/29 11:57:42;;;;;;;;;;;;;;;;;;4980739;28;19918;-92
2022/06/29 12:00:07;;;;;;;;;;;;;;;;;;4981658;28;20289;-95
2022/06/29 12:02:36;;;;;;;;;;;;;;;;;;4982574;28;19902;-92
2022/06/29 12:05:01;;;;;;;;;;;;;;;;;;5015638;28;19918;-92
2022/06/29 12:07:31;;;;;;;;;;;;;;;;;;4973930;28;19981;-91
2022/06/29 12:09:56;;;;;;;;;;;;;;;;;;4967817;28;19910;-91
2022/06/29 12:12:22;;;;;;;;;;;;;;;;;;4948093;28;20000;-91
2022/06/29 12:14:47;;;;;;;;;;;;;;;;;;4948320;28;19921;-92
2022/06/29 12:17:16;;;;;;;;;;;;;;;;;;4947681;28;20016;-93
2022/06/29 12:19:41;;;;;;;;;;;;;;;;;;5000019;28;20068;-94
2022/06/29 12:22:06;;;;;;;;;;;;;;;;;;4981476;28;19949;-94
2022/06/29 12:24:32;;;;;;;;;;;;;;;;;;4967343;28;19921;-93
2022/06/29 12:26:57;;;;;;;;;;;;;;;;;;5006940;28;20009;-93
2022/06/29 12:29:23;;;;;;;;;;;;;;;;;;5295854;23;19971;-92
2022/06/29 12:31:48;;;;;;;;;;;;;;;;;;4999612;28;20319;-90
2022/06/29 12:34:13;;;;;;;;;;;;;;;;;;5016762;28;20284;-91
2022/06/29 12:36:39;;;;;;;;;;;;;;;;;;5015735;28;19917;-89
2022/06/29 12:41:33;;;;;;;;;;;;;;;;;;4992058;28;19922;-88
2022/06/29 12:43:59;;;;;;;;;;;;;;;;;;4978927;28;19972;-91
2022/06/29 12:46:25;;;;;;;;;;;;;;;;;;4946255;28;19949;-91
2022/06/29 12:48:50;;;;;;;;;;;;;;;;;;4995650;28;19960;-92
2022/06/29 12:51:18;;;;;;;;;;;;;;;;;;4942686;28;19921;-92
2022/06/29 12:53:43;;;;;;;;;;;;;;;;;;4975312;28;20018;-91
2022/06/29 12:56:09;;;;;;;;;;;;;;;;;;4975803;28;20054;-91
2022/06/29 12:58:34;;;;;;;;;;;;;;;;;;4957889;28;19914;-90
2022/06/29 13:00:59;;;;;;;;;;;;;;;;;;4959636;28;20210;-90
2022/06/29 13:03:25;;;;;;;;;;;;;;;;;;4947172;28;19964;-93
2022/06/29 13:05:51;;;;;;;;;;;;;;;;;;4942594;28;19978;-90
2022/06/29 13:08:16;;;;;;;;;;;;;;;;;;4958466;28;20084;-90
2022/06/29 13:10:42;;;;;;;;;;;;;;;;;;4974408;28;19914;-90
2022/06/29 13:13:07;;;;;;;;;;;;;;;;;;4941146;28;20246;-90
2022/06/29 13:15:33;;;;;;;;;;;;;;;;;;4973483;28;20072;-90
2022/06/29 13:17:58;;;;;;;;;;;;;;;;;;4941388;28;20250;-87
2022/06/29 13:20:24;;;;;;;;;;;;;;;;;;4956005;28;20285;-87
2022/06/29 13:22:51;;;;;;;;;;;;;;;;;;4973102;28;19918;-88
2022/06/29 13:25:16;;;;;;;;;;;;;;;;;;4955728;28;19914;-88
2022/06/29 13:27:42;;;;;;;;;;;;;;;;;;4974152;28;20370;-87
2022/06/29 13:30:07;;;;;;;;;;;;;;;;;;4956891;28;19918;-88
2022/06/29 13:32:33;;;;;;;;;;;;;;;;;;4925096;28;19914;-88
2022/06/29 13:34:59;;;;;;;;;;;;;;;;;;4958622;28;19926;-89
2022/06/29 13:37:24;;;;;;;;;;;;;;;;;;4974942;28;19914;-88
2022/06/29 13:39:49;;;;;;;;;;;;;;;;;;4973861;28;20336;-88
2022/06/29 14:06:35;;;;;;;;;;;;;;;;;;5143993;23;19941;-94
2022/06/29 14:09:09;;;;;;;;;;;;;;;;;;5021835;28;19927;-95
2022/06/29 14:11:37;;;;;;;;;;;;;;;;;;5005545;28;19913;-93
2022/06/29 14:14:08;;;;;;;;;;;;;;;;;;5030461;28;19921;-94
2022/06/29 14:16:34;;;;;;;;;;;;;;;;;;5029610;28;19995;-93
2022/06/29 14:19:05;;;;;;;;;;;;;;;;;;5032590;28;19921;-94
2022/06/29 14:21:54;;;;;;;;;;;;;;;;;;5029612;28;19985;-94
2022/06/29 14:24:27;;;;;;;;;;;;;;;;;;5029794;28;19913;-93
2022/06/29 14:27:01;;;;;;;;;;;;;;;;;;5029816;28;20380;-94
2022/06/29 14:29:38;;;;;;;;;;;;;;;;;;5031305;28;19913;-93
2022/06/29 14:32:09;;;;;;;;;;;;;;;;;;5032410;28;19996;-94
2022/06/29 14:34:40;;;;;;;;;;;;;;;;;;5035333;28;19924;-93
2022/06/29 14:37:17;;;;;;;;;;;;;;;;;;5033455;28;19984;-93
2022/06/29 14:39:50;;;;;;;;;;;;;;;;;;5032459;28;20266;-94
2022/06/29 14:42:39;;;;;;;;;;;;;;;;;;5033502;28;19913;-93
2022/06/29 14:45:12;;;;;;;;;;;;;;;;;;5032273;28;19940;-94
2022/06/29 14:48:01;;;;;;;;;;;;;;;;;;5034298;28;19948;-94
2022/06/29 14:50:37;;;;;;;;;;;;;;;;;;5032600;28;19964;-95
2022/06/29 14:53:06;;;;;;;;;;;;;;;;;;4986620;23;19949;-85
2022/06/29 14:55:31;;;;;;;;;;;;;;;;;;4958275;28;20008;-85
2022/06/29 14:57:57;;;;;;;;;;;;;;;;;;4942852;28;19990;-84
2022/06/29 15:00:26;;;;;;;;;;;;;;;;;;4974753;28;20309;-84
2022/06/29 15:02:52;;;;;;;;;;;;;;;;;;4976425;28;19918;-84
2022/06/29 15:05:20;;;;;;;;;;;;;;;;;;4962957;28;19914;-82
2022/06/29 15:07:49;;;;;;;;;;;;;;;;;;4965114;28;20343;-84
2022/06/29 15:10:18;;;;;;;;;;;;;;;;;;4949884;28;20321;-83
2022/06/29 15:12:44;;;;;;;;;;;;;;;;;;4975701;28;19914;-84
2022/06/29 15:15:13;;;;;;;;;;;;;;;;;;4943685;28;19918;-84
2022/06/29 15:17:39;;;;;;;;;;;;;;;;;;4957449;28;19969;-84
2022/06/29 15:20:05;;;;;;;;;;;;;;;;;;4974070;28;20008;-84
2022/06/29 15:22:31;;;;;;;;;;;;;;;;;;4990266;28;20019;-85
2022/06/29 15:24:57;;;;;;;;;;;;;;;;;;4958652;28;19914;-83
2022/06/29 15:27:22;;;;;;;;;;;;;;;;;;4945168;28;20005;-85
2022/06/29 15:29:51;;;;;;;;;;;;;;;;;;4959405;28;19914;-85
2022/06/29 15:32:17;;;;;;;;;;;;;;;;;;4942339;28;20005;-84
2022/06/29 15:40:16;;;;;;;;;;;;;;;;;;4958467;28;19914;-84
2022/06/29 15:42:42;;;;;;;;;;;;;;;;;;4957598;28;20336;-84
2022/06/29 15:45:08;;;;;;;;;;;;;;;;;;4962450;28;19914;-85
2022/06/29 15:47:33;;;;;;;;;;;;;;;;;;4957375;28;20349;-83
2022/06/29 15:49:59;;;;;;;;;;;;;;;;;;4941339;28;19919;-84
2022/06/29 15:52:25;;;;;;;;;;;;;;;;;;4957218;28;19961;-84
2022/06/29 15:57:36;;;;;;;;;;;;;;;;;;4957482;28;19964;-86
2022/06/29 16:00:03;;;;;;;;;;;;;;;;;;4958113;28;19917;-85
2022/06/29 16:02:40;;;;;;;;;;;;;;;;;;4958560;28;19914;-84
2022/06/29 16:05:11;;;;;;;;;;;;;;;;;;4943423;28;19914;-84
2022/06/29 16:07:39;;;;;;;;;;;;;;;;;;4941600;28;20340;-85
2022/06/29 16:10:05;;;;;;;;;;;;;;;;;;4957998;28;20373;-85
2022/06/29 16:12:31;;;;;;;;;;;;;;;;;;4949220;28;19914;-86
2022/06/29 16:14:57;;;;;;;;;;;;;;;;;;4946261;28;19946;-86
2022/06/29 16:17:22;;;;;;;;;;;;;;;;;;4958196;28;19914;-84
2022/06/29 16:19:48;;;;;;;;;;;;;;;;;;4941811;28;20377;-85
2022/06/29 16:22:15;;;;;;;;;;;;;;;;;;4974018;28;19922;-86
2022/06/29 16:24:44;;;;;;;;;;;;;;;;;;4957650;28;19910;-85
2022/06/29 16:27:09;;;;;;;;;;;;;;;;;;4956160;28;19954;-83
2022/06/29 16:29:38;;;;;;;;;;;;;;;;;;4940890;28;19957;-85
2022/06/29 16:32:05;;;;;;;;;;;;;;;;;;4941029;28;19985;-85
2022/06/29 16:34:34;;;;;;;;;;;;;;;;;;4941216;28;19922;-83
2022/06/29 16:37:00;;;;;;;;;;;;;;;;;;4941179;28;20073;-84
2022/06/29 16:39:29;;;;;;;;;;;;;;;;;;4942282;28;19952;-86
2022/06/29 16:41:55;;;;;;;;;;;;;;;;;;4956714;28;19914;-83
2022/06/29 16:44:21;;;;;;;;;;;;;;;;;;4972791;28;19930;-84
2022/06/29 16:46:48;;;;;;;;;;;;;;;;;;4956594;28;19914;-84
2022/06/29 16:49:16;;;;;;;;;;;;;;;;;;4957586;28;19914;-85
2022/06/29 16:51:42;;;;;;;;;;;;;;;;;;4956774;28;19922;-85
2022/06/29 16:54:11;;;;;;;;;;;;;;;;;;4956369;28;20392;-84
2022/06/29 16:56:36;;;;;;;;;;;;;;;;;;4956807;28;19920;-84
2022/06/29 16:59:02;;;;;;;;;;;;;;;;;;4957479;28;19910;-86
2022/06/29 17:01:27;;;;;;;;;;;;;;;;;;4959263;28;20237;-84
2022/06/29 17:03:53;;;;;;;;;;;;;;;;;;4942814;28;19977;-85
2022/06/29 17:06:18;;;;;;;;;;;;;;;;;;4958834;28;19921;-86
2022/06/29 17:08:44;;;;;;;;;;;;;;;;;;4957414;28;20009;-85
2022/06/29 17:11:09;;;;;;;;;;;;;;;;;;4940732;28;20266;-85
2022/06/29 17:13:35;;;;;;;;;;;;;;;;;;4957992;28;19922;-85
2022/06/29 17:16:01;;;;;;;;;;;;;;;;;;4956455;28;19918;-84
2022/06/29 17:18:26;;;;;;;;;;;;;;;;;;4973002;28;20013;-85
2022/06/29 17:20:52;;;;;;;;;;;;;;;;;;4958697;28;19933;-85
2022/06/29 17:23:18;;;;;;;;;;;;;;;;;;4942768;28;19916;-85
2022/06/29 17:25:47;;;;;;;;;;;;;;;;;;4973909;28;20034;-84
2022/06/29 17:28:16;;;;;;;;;;;;;;;;;;4941681;28;20012;-85
2022/06/29 17:30:44;;;;;;;;;;;;;;;;;;4957979;28;19922;-85
2022/06/29 17:33:30;;;;;;;;;;;;;;;;;;4942322;28;20374;-85